createdAt,value
2023-04-15T00:00:12.122Z,60.40
2023-04-15T00:02:45.777Z,60.40
2023-04-15T00:05:15.022Z,60.70
2023-04-15T00:07:44.190Z,60.50
2023-04-15T00:10:13.106Z,60.00
2023-04-15T00:12:42.310Z,60.60
2023-04-15T00:15:19.017Z,61.00
2023-04-15T00:17:44.405Z,61.20
2023-04-15T00:20:13.686Z,61.40
2023-04-15T00:22:42.592Z,61.20
2023-04-15T00:25:11.587Z,61.50
2023-04-15T00:27:40.563Z,61.70
2023-04-15T00:30:09.853Z,61.50
2023-04-15T00:32:38.801Z,62.30
2023-04-15T00:35:11.123Z,62.10
2023-04-15T00:37:40.121Z,61.90
2023-04-15T00:40:10.356Z,62.20
2023-04-15T00:42:39.470Z,61.80
2023-04-15T00:45:08.429Z,62.20
2023-04-15T00:47:37.775Z,62.50
2023-04-15T00:50:07.034Z,62.20
2023-04-15T00:52:35.926Z,62.30
2023-04-15T00:55:05.342Z,62.20
2023-04-15T00:57:34.321Z,62.30
2023-04-15T01:00:03.322Z,62.50
2023-04-15T01:02:32.657Z,62.30
2023-04-15T01:05:05.398Z,62.30
2023-04-15T01:07:34.526Z,62.40
2023-04-15T01:10:03.483Z,62.40
2023-04-15T01:12:32.535Z,62.50
2023-04-15T01:15:01.720Z,62.00
2023-04-15T01:17:31.279Z,62.50
2023-04-15T01:20:00.590Z,62.50
2023-04-15T01:22:31.321Z,62.80
2023-04-15T01:25:00.942Z,62.70
2023-04-15T01:27:31.642Z,62.30
2023-04-15T01:30:01.061Z,62.70
2023-04-15T01:32:31.819Z,63.40
2023-04-15T01:35:01.307Z,64.30
2023-04-15T01:37:30.599Z,64.50
2023-04-15T01:40:00.275Z,64.40
2023-04-15T01:42:30.005Z,63.10
2023-04-15T01:44:59.124Z,62.70
2023-04-15T01:47:28.537Z,61.80
2023-04-15T01:49:57.625Z,61.50
2023-04-15T01:52:26.511Z,61.50
2023-04-15T01:54:55.813Z,61.50
2023-04-15T01:57:25.120Z,61.20
2023-04-15T01:59:54.335Z,61.20
2023-04-15T02:02:23.286Z,61.20
2023-04-15T02:04:55.090Z,61.10
2023-04-15T02:07:22.534Z,61.00
2023-04-15T02:09:51.715Z,61.10
2023-04-15T02:12:21.020Z,60.90
2023-04-15T02:14:52.624Z,60.90
2023-04-15T02:17:21.272Z,60.90
2023-04-15T02:19:50.352Z,61.00
2023-04-15T02:22:19.564Z,60.90
2023-04-15T02:24:48.563Z,60.90
2023-04-15T02:27:17.643Z,60.90
2023-04-15T02:29:46.635Z,60.90
2023-04-15T02:32:15.834Z,60.90
2023-04-15T02:34:45.141Z,60.80
2023-04-15T02:37:14.130Z,60.90
2023-04-15T02:39:43.234Z,61.10
2023-04-15T02:42:12.215Z,60.70
2023-04-15T02:44:41.738Z,61.00
2023-04-15T02:47:11.029Z,61.00
2023-04-15T02:49:40.223Z,61.00
2023-04-15T02:52:09.217Z,61.00
2023-04-15T02:54:39.748Z,61.00
2023-04-15T02:57:08.961Z,60.80
2023-04-15T02:59:37.840Z,61.00
2023-04-15T03:02:07.193Z,61.10
2023-04-15T03:04:36.646Z,61.00
2023-04-15T03:07:08.540Z,61.10
2023-04-15T03:09:38.549Z,61.00
2023-04-15T03:12:09.151Z,61.10
2023-04-15T03:14:39.882Z,61.20
2023-04-15T03:17:09.175Z,61.10
2023-04-15T03:19:39.710Z,61.30
2023-04-15T03:22:09.940Z,61.20
2023-04-15T03:24:39.047Z,61.10
2023-04-15T03:27:07.910Z,61.30
2023-04-15T03:29:36.912Z,61.30
2023-04-15T03:32:06.013Z,61.20
2023-04-15T03:34:35.622Z,61.10
2023-04-15T03:37:06.350Z,61.00
2023-04-15T03:39:35.643Z,61.20
2023-04-15T03:42:04.651Z,61.20
2023-04-15T03:44:33.540Z,61.00
2023-04-15T03:47:02.647Z,61.20
2023-04-15T03:49:32.052Z,61.90
2023-04-15T03:52:01.022Z,61.50
2023-04-15T03:54:29.927Z,61.40
2023-04-15T03:56:59.126Z,61.30
2023-04-15T03:59:28.103Z,61.30
2023-04-15T04:01:57.432Z,61.50
2023-04-15T04:04:26.908Z,61.40
2023-04-15T04:06:56.107Z,61.50
2023-04-15T04:09:25.009Z,61.50
2023-04-15T04:11:54.206Z,61.60
2023-04-15T04:14:23.401Z,61.50
2023-04-15T04:16:52.516Z,61.50
2023-04-15T04:19:21.386Z,61.50
2023-04-15T04:21:50.685Z,61.70
2023-04-15T04:24:19.576Z,61.70
2023-04-15T04:26:48.676Z,61.70
2023-04-15T04:29:17.770Z,61.70
2023-04-15T04:31:46.752Z,61.70
2023-04-15T04:34:15.653Z,61.90
2023-04-15T04:36:44.973Z,61.80
2023-04-15T04:39:14.052Z,61.90
2023-04-15T04:41:42.931Z,62.00
2023-04-15T04:44:11.802Z,61.90
2023-04-15T04:46:41.027Z,62.00
2023-04-15T04:49:10.039Z,62.10
2023-04-15T04:51:38.908Z,62.00
2023-04-15T04:54:08.016Z,62.20
2023-04-15T04:56:37.208Z,62.40
2023-04-15T04:59:06.094Z,62.20
2023-04-15T05:01:35.438Z,62.60
2023-04-15T05:04:04.806Z,62.50
2023-04-15T05:06:33.989Z,62.50
2023-04-15T05:09:03.300Z,62.70
2023-04-15T05:11:32.604Z,63.00
2023-04-15T05:14:01.809Z,62.70
2023-04-15T05:16:30.690Z,62.90
2023-04-15T05:19:00.074Z,63.20
2023-04-15T05:21:29.185Z,63.00
2023-04-15T05:23:58.154Z,62.90
2023-04-15T05:26:27.638Z,63.00
2023-04-15T05:28:56.701Z,63.30
2023-04-15T05:31:25.585Z,63.40
2023-04-15T05:33:54.563Z,63.00
2023-04-15T05:36:23.763Z,63.20
2023-04-15T05:38:53.072Z,63.30
2023-04-15T05:41:22.372Z,63.70
2023-04-15T05:43:51.753Z,63.70
2023-04-15T05:46:20.687Z,63.30
2023-04-15T05:48:49.522Z,63.10
2023-04-15T05:51:18.653Z,63.70
2023-04-15T05:53:47.845Z,63.50
2023-04-15T06:18:05.419Z,65.20
2023-04-15T07:05:47.618Z,67.90
2023-04-15T07:08:16.929Z,67.30
2023-04-15T07:10:46.140Z,66.90
2023-04-15T07:13:15.109Z,66.90
2023-04-15T07:15:44.101Z,66.50
2023-04-15T07:18:13.312Z,66.20
2023-04-15T07:20:42.302Z,65.90
2023-04-15T07:23:11.187Z,65.70
2023-04-15T07:25:40.376Z,65.50
2023-04-15T07:28:09.279Z,65.10
2023-04-15T07:30:38.270Z,65.10
2023-04-15T07:33:07.398Z,64.30
2023-04-15T07:35:36.879Z,64.60
2023-04-15T07:38:05.759Z,64.50
2023-04-15T07:40:34.962Z,64.40
2023-04-15T07:43:04.276Z,64.30
2023-04-15T07:45:33.355Z,64.20
2023-04-15T07:48:02.622Z,64.10
2023-04-15T07:50:31.851Z,64.00
2023-04-15T07:53:00.858Z,63.90
2023-04-15T07:55:29.742Z,63.80
2023-04-15T07:57:58.841Z,63.80
2023-04-15T08:00:28.057Z,63.70
2023-04-15T08:02:57.415Z,63.70
2023-04-15T08:05:26.643Z,63.60
2023-04-15T08:07:55.630Z,63.60
2023-04-15T08:10:24.518Z,63.50
2023-04-15T08:12:53.827Z,63.50
2023-04-15T08:15:22.721Z,63.40
2023-04-15T08:17:51.776Z,63.30
2023-04-15T08:20:20.905Z,63.90
2023-04-15T08:22:50.205Z,63.20
2023-04-15T08:25:19.304Z,63.10
2023-04-15T08:27:48.188Z,63.10
2023-04-15T08:30:17.184Z,63.00
2023-04-15T08:32:46.240Z,63.00
2023-04-15T08:35:15.579Z,62.90
2023-04-15T08:37:44.708Z,62.90
2023-04-15T08:40:13.680Z,62.80
2023-04-15T08:42:43.656Z,62.80
2023-04-15T08:45:13.310Z,62.70
2023-04-15T08:47:42.540Z,62.70
2023-04-15T08:50:11.800Z,62.60
2023-04-15T08:52:40.783Z,62.50
2023-04-15T08:55:09.769Z,62.50
2023-04-15T08:57:38.777Z,62.40
2023-04-15T09:00:07.875Z,62.40
2023-04-15T09:02:37.019Z,62.40
2023-04-15T09:05:06.406Z,62.30
2023-04-15T09:07:35.360Z,62.30
2023-04-15T09:10:04.329Z,62.10
2023-04-15T09:12:33.560Z,62.00
2023-04-15T09:15:03.084Z,62.70
2023-04-15T09:17:32.381Z,61.90
2023-04-15T09:20:01.480Z,61.80
2023-04-15T09:22:30.687Z,61.70
2023-04-15T09:24:59.655Z,61.60
2023-04-15T09:27:28.647Z,61.50
2023-04-15T09:29:57.835Z,62.20
2023-04-15T09:32:28.882Z,61.60
2023-04-15T09:35:00.159Z,61.50
2023-04-15T09:37:32.470Z,61.40
2023-04-15T09:39:59.752Z,61.30
2023-04-15T09:42:28.747Z,61.30
2023-04-15T09:44:57.706Z,61.20
2023-04-15T09:47:29.648Z,61.20
2023-04-15T09:49:59.169Z,61.20
2023-04-15T09:52:28.267Z,61.20
2023-04-15T09:54:57.183Z,61.00
2023-04-15T09:57:26.196Z,61.00
2023-04-15T09:59:55.409Z,60.90
2023-04-15T10:02:24.561Z,60.80
2023-04-15T10:04:53.986Z,60.80
2023-04-15T10:07:22.973Z,61.00
2023-04-15T10:09:51.869Z,60.80
2023-04-15T10:12:20.975Z,60.10
2023-04-15T10:14:50.268Z,60.60
2023-04-15T10:17:19.364Z,60.70
2023-04-15T10:19:48.261Z,60.70
2023-04-15T10:22:17.859Z,60.70
2023-04-15T10:24:46.746Z,60.40
2023-04-15T10:27:16.156Z,60.20
2023-04-15T10:29:45.354Z,60.20
2023-04-15T10:32:14.441Z,60.10
2023-04-15T10:34:43.440Z,59.80
2023-04-15T10:37:12.626Z,60.00
2023-04-15T10:39:41.827Z,59.90
2023-04-15T10:42:10.800Z,60.00
2023-04-15T10:44:39.924Z,60.00
2023-04-15T10:47:08.992Z,60.00
2023-04-15T10:49:38.129Z,59.90
2023-04-15T10:52:07.327Z,59.90
2023-04-15T10:54:36.615Z,59.60
2023-04-15T10:57:07.271Z,59.70
2023-04-15T10:59:36.176Z,59.80
2023-04-15T11:02:05.597Z,59.70
2023-04-15T11:04:34.985Z,59.60
2023-04-15T11:07:03.928Z,59.60
2023-04-15T11:09:32.918Z,59.60
2023-04-15T11:12:02.027Z,59.20
2023-04-15T11:14:31.117Z,59.40
2023-04-15T11:17:01.412Z,59.50
2023-04-15T11:19:30.327Z,59.30
2023-04-15T11:21:59.426Z,59.20
2023-04-15T11:24:28.398Z,59.00
2023-04-15T11:26:57.728Z,58.80
2023-04-15T11:29:26.937Z,58.30
2023-04-15T11:31:56.092Z,59.40
2023-04-15T11:34:25.316Z,59.10
2023-04-15T11:36:54.514Z,58.70
2023-04-15T11:39:23.702Z,59.20
2023-04-15T11:41:52.810Z,58.60
2023-04-15T11:44:22.134Z,58.80
2023-04-15T11:46:51.314Z,58.80
2023-04-15T11:49:20.521Z,58.40
2023-04-15T11:51:49.808Z,58.80
2023-04-15T11:54:19.116Z,58.70
2023-04-15T11:56:48.176Z,58.60
2023-04-15T11:59:17.500Z,58.80
2023-04-15T12:01:46.569Z,58.80
2023-04-15T12:04:15.913Z,58.70
2023-04-15T12:06:45.097Z,59.00
2023-04-15T12:09:14.087Z,58.90
2023-04-15T12:11:43.088Z,58.90
2023-04-15T12:14:12.175Z,59.00
2023-04-15T12:16:48.779Z,59.10
2023-04-15T12:19:11.631Z,59.00
2023-04-15T12:21:40.696Z,59.00
2023-04-15T12:24:09.885Z,59.10
2023-04-15T12:26:39.098Z,59.00
2023-04-15T12:29:08.182Z,59.10
2023-04-15T12:31:37.552Z,59.10
2023-04-15T12:34:07.306Z,59.10
2023-04-15T12:36:36.696Z,59.20
2023-04-15T12:39:05.897Z,59.20
2023-04-15T12:41:35.136Z,59.20
2023-04-15T12:44:04.643Z,59.30
2023-04-15T12:46:34.057Z,59.40
2023-04-15T12:49:03.410Z,59.30
2023-04-15T12:51:32.810Z,59.30
2023-04-15T12:54:01.840Z,59.30
2023-04-15T12:56:31.423Z,59.20
2023-04-15T12:59:11.408Z,59.30
2023-04-15T13:01:36.924Z,59.30
2023-04-15T13:04:06.919Z,59.30
2023-04-15T13:06:36.300Z,59.30
2023-04-15T13:09:05.957Z,59.50
2023-04-15T13:11:36.877Z,59.40
2023-04-15T13:14:06.074Z,59.40
2023-04-15T13:16:35.380Z,59.50
2023-04-15T13:19:06.026Z,59.50
2023-04-15T13:21:35.795Z,59.50
2023-04-15T13:24:05.563Z,59.60
2023-04-15T13:26:36.374Z,59.50
2023-04-15T13:29:06.054Z,59.60
2023-04-15T13:31:35.347Z,59.70
2023-04-15T13:34:04.714Z,59.80
2023-04-15T13:36:34.362Z,59.80
2023-04-15T13:39:03.651Z,59.90
2023-04-15T13:41:36.918Z,60.00
2023-04-15T13:44:05.987Z,61.10
2023-04-15T13:46:35.555Z,61.50
2023-04-15T13:49:04.980Z,58.90
2023-04-15T13:51:34.349Z,58.30
2023-04-15T13:54:03.836Z,58.50
2023-04-15T13:56:37.876Z,58.70
2023-04-15T13:59:07.280Z,57.70
2023-04-15T14:01:36.499Z,57.30
2023-04-15T14:04:06.181Z,57.30
2023-04-15T14:06:35.693Z,57.10
2023-04-15T14:09:05.558Z,57.20
2023-04-15T14:11:35.113Z,57.30
2023-04-15T14:14:04.553Z,57.20
2023-04-15T14:16:35.385Z,56.90
2023-04-15T14:19:04.981Z,56.90
2023-04-15T14:21:34.622Z,57.20
2023-04-15T14:24:04.064Z,57.40
2023-04-15T14:26:33.492Z,57.40
2023-04-15T14:29:03.044Z,57.30
2023-04-15T14:31:32.255Z,58.10
2023-04-15T14:34:01.378Z,58.70
2023-04-15T14:36:30.569Z,58.60
2023-04-15T14:38:59.553Z,59.10
2023-04-15T14:41:29.261Z,59.00
2023-04-15T14:43:58.472Z,59.60
2023-04-15T14:46:27.703Z,59.10
2023-04-15T14:48:56.944Z,59.10
2023-04-15T14:51:26.169Z,58.60
2023-04-15T14:53:55.476Z,58.50
2023-04-15T14:56:24.458Z,58.60
2023-04-15T14:58:53.552Z,58.20
2023-04-15T15:01:23.052Z,58.30
2023-04-15T15:03:52.405Z,58.50
2023-04-15T15:06:21.354Z,58.20
2023-04-15T15:08:50.671Z,58.10
2023-04-15T15:11:20.091Z,58.10
2023-04-15T15:13:49.571Z,57.60
2023-04-15T15:16:18.724Z,57.90
2023-04-15T15:18:47.840Z,58.30
2023-04-15T15:21:17.162Z,58.50
2023-04-15T15:23:46.461Z,58.90
2023-04-15T15:26:15.668Z,58.90
2023-04-15T15:28:45.072Z,58.80
2023-04-15T15:31:14.527Z,59.20
2023-04-15T15:33:43.661Z,59.20
2023-04-15T15:36:13.071Z,59.20
2023-04-15T15:38:42.372Z,59.70
2023-04-15T15:41:11.597Z,59.20
2023-04-15T15:43:41.074Z,59.20
2023-04-15T15:46:10.347Z,59.30
2023-04-15T15:48:39.554Z,59.40
2023-04-15T15:51:27.714Z,59.90
2023-04-15T15:53:57.012Z,60.10
2023-04-15T15:56:26.110Z,59.60
2023-04-15T15:58:54.993Z,60.00
2023-04-15T16:01:23.976Z,60.00
2023-04-15T16:03:53.434Z,60.00
2023-04-15T16:06:22.899Z,60.30
2023-04-15T16:08:51.784Z,60.00
2023-04-15T16:11:20.782Z,60.00
2023-04-15T16:13:49.774Z,60.00
2023-04-15T16:16:18.794Z,60.00
2023-04-15T16:18:48.278Z,60.10
2023-04-15T16:21:17.476Z,60.10
2023-04-15T16:23:46.697Z,59.80
2023-04-15T16:26:15.759Z,59.90
2023-04-15T16:28:44.970Z,60.00
2023-04-15T16:31:13.848Z,60.10
2023-04-15T16:33:43.055Z,60.00
2023-04-15T16:36:12.356Z,60.30
2023-04-15T16:38:41.245Z,60.20
2023-04-15T16:41:10.128Z,60.10
2023-04-15T16:43:39.134Z,60.00
2023-04-15T16:46:08.376Z,60.80
2023-04-15T16:48:37.316Z,60.70
2023-04-15T16:51:06.974Z,61.10
2023-04-15T16:53:36.022Z,61.00
2023-04-15T16:56:05.016Z,61.30
2023-04-15T16:58:34.240Z,61.60
2023-04-15T17:01:03.353Z,60.90
2023-04-15T17:03:32.560Z,61.80
2023-04-15T17:06:02.114Z,61.50
2023-04-15T17:08:31.318Z,61.40
2023-04-15T17:11:00.417Z,61.40
2023-04-15T17:13:29.397Z,61.20
2023-04-15T17:15:58.330Z,61.20
2023-04-15T17:18:27.595Z,61.30
2023-04-15T17:20:56.688Z,60.90
2023-04-15T17:23:25.890Z,61.10
2023-04-15T17:25:54.769Z,61.00
2023-04-15T17:28:23.878Z,60.80
2023-04-15T17:30:52.804Z,61.00
2023-04-15T17:33:55.370Z,61.20
2023-04-15T17:35:52.204Z,61.20
2023-04-15T17:38:21.075Z,61.10
2023-04-15T17:40:50.065Z,62.10
2023-04-15T17:43:19.071Z,62.20
2023-04-15T17:45:48.160Z,62.10
2023-04-15T17:48:17.154Z,61.60
2023-04-15T17:50:46.734Z,62.20
2023-04-15T17:53:15.649Z,61.90
2023-04-15T17:55:44.743Z,63.50
2023-04-15T17:58:13.754Z,62.80
2023-04-15T18:00:42.948Z,62.90
2023-04-15T18:03:12.095Z,62.90
2023-04-15T18:05:42.648Z,62.10
2023-04-15T18:08:11.563Z,62.80
2023-04-15T18:10:40.438Z,63.40
2023-04-15T18:13:09.750Z,63.60
2023-04-15T18:15:39.050Z,63.80
2023-04-15T18:18:08.036Z,63.60
2023-04-15T18:20:37.029Z,64.20
2023-04-15T18:23:06.132Z,63.80
2023-04-15T18:25:35.329Z,63.80
2023-04-15T18:28:04.624Z,63.70
2023-04-15T18:30:33.513Z,63.90
2023-04-15T18:33:02.655Z,63.70
2023-04-15T18:38:18.417Z,64.00
2023-04-15T18:40:47.413Z,63.40
2023-04-15T18:43:16.816Z,63.30
2023-04-15T18:45:45.949Z,63.10
2023-04-15T18:48:14.903Z,62.90
2023-04-15T18:50:44.005Z,63.00
2023-04-15T18:53:13.002Z,62.70
2023-04-15T18:55:42.091Z,62.30
2023-04-15T18:58:11.416Z,62.30
2023-04-15T19:00:40.713Z,62.00
2023-04-15T19:03:10.375Z,62.30
2023-04-15T19:05:39.285Z,62.80
2023-04-15T19:08:08.292Z,62.20
2023-04-15T19:10:37.290Z,62.20
2023-04-15T19:13:06.385Z,62.00
2023-04-15T19:15:35.577Z,61.90
2023-04-15T19:18:04.606Z,61.90
2023-04-15T19:20:37.177Z,61.90
2023-04-15T19:23:04.393Z,62.00
2023-04-15T19:25:33.507Z,62.10
2023-04-15T19:28:02.374Z,62.60
2023-04-15T19:30:31.393Z,62.00
2023-04-15T19:33:00.585Z,62.20
2023-04-15T19:35:29.463Z,61.90
2023-04-15T19:37:58.675Z,61.80
2023-04-15T19:40:27.668Z,61.80
2023-04-15T19:43:00.036Z,61.70
2023-04-15T19:45:28.923Z,61.90
2023-04-15T19:47:58.043Z,62.00
2023-04-15T19:50:27.215Z,61.90
2023-04-15T19:52:56.205Z,61.90
2023-04-15T19:55:25.091Z,61.90
2023-04-15T19:57:54.306Z,61.90
2023-04-15T20:00:23.188Z,62.20
2023-04-15T20:02:52.263Z,62.60
2023-04-15T20:05:21.560Z,62.50
2023-04-15T20:07:50.598Z,62.40
2023-04-15T20:10:19.547Z,62.50
2023-04-15T20:12:52.693Z,62.60
2023-04-15T20:15:19.206Z,62.60
2023-04-15T20:17:48.216Z,62.80
2023-04-15T20:20:17.277Z,62.70
2023-04-15T20:22:46.392Z,62.50
2023-04-15T20:25:15.477Z,62.60
2023-04-15T20:27:44.370Z,62.50
2023-04-15T20:30:13.460Z,62.90
2023-04-15T20:32:42.687Z,63.00
2023-04-15T20:35:11.958Z,63.00
2023-04-15T20:37:41.365Z,62.60
2023-04-15T20:40:10.351Z,62.50
2023-04-15T20:42:39.237Z,62.50
2023-04-15T20:45:08.240Z,62.80
2023-04-15T20:47:37.266Z,62.70
2023-04-15T20:50:06.222Z,62.30
2023-04-15T20:52:35.427Z,62.50
2023-04-15T20:55:04.626Z,62.60
2023-04-15T20:57:33.512Z,62.80
2023-04-15T21:00:02.606Z,62.60
2023-04-15T21:02:31.837Z,62.40
2023-04-15T21:05:01.122Z,62.30
2023-04-15T21:07:30.118Z,62.60
2023-04-15T21:09:59.718Z,62.60
2023-04-15T21:12:29.009Z,62.40
2023-04-15T21:14:58.204Z,62.50
2023-04-15T21:17:27.527Z,61.80
2023-04-15T21:19:56.914Z,61.60
2023-04-15T21:22:26.105Z,61.40
2023-04-15T21:24:55.338Z,61.10
2023-04-15T21:27:27.790Z,61.20
2023-04-15T21:29:57.184Z,61.00
2023-04-15T21:32:26.436Z,60.90
2023-04-15T21:34:58.574Z,61.00
2023-04-15T21:37:27.746Z,61.10
2023-04-15T21:39:56.958Z,61.20
2023-04-15T21:42:26.706Z,60.70
2023-04-15T21:45:00.802Z,60.90
2023-04-15T21:47:29.995Z,61.40
2023-04-15T21:49:59.376Z,61.80
2023-04-15T21:52:28.387Z,62.20
2023-04-15T21:54:57.354Z,62.40
2023-04-15T21:57:26.652Z,61.90
2023-04-15T21:59:55.856Z,62.00
2023-04-15T22:02:25.075Z,61.80
2023-04-15T22:04:54.352Z,61.90
2023-04-15T22:07:23.702Z,62.00
2023-04-15T22:09:52.954Z,62.00
2023-04-15T22:12:22.056Z,61.90
2023-04-15T22:14:51.662Z,61.80
2023-04-15T22:17:20.860Z,61.30
2023-04-15T22:19:49.747Z,60.70
2023-04-15T22:22:19.055Z,60.70
2023-04-15T22:24:49.178Z,60.70
2023-04-15T22:27:18.364Z,61.30
2023-04-15T22:29:47.562Z,61.60
2023-04-15T22:32:16.763Z,61.90
2023-04-15T22:34:46.068Z,61.40
2023-04-15T22:37:15.358Z,61.40
2023-04-15T22:39:44.671Z,61.80
2023-04-15T22:42:14.172Z,62.00
2023-04-15T22:44:43.674Z,61.80
2023-04-15T22:47:13.071Z,61.40
2023-04-15T22:49:42.483Z,61.70
2023-04-15T22:52:17.182Z,62.20
2023-04-15T22:54:42.197Z,62.60
2023-04-15T22:57:11.407Z,61.90
2023-04-15T22:59:40.706Z,61.50
2023-04-15T23:02:09.908Z,61.20
2023-04-15T23:04:39.159Z,60.90
2023-04-15T23:07:08.619Z,60.80
2023-04-15T23:09:37.696Z,60.50
2023-04-15T23:12:07.112Z,60.50
2023-04-15T23:14:36.516Z,60.30
2023-04-15T23:17:05.698Z,60.50
2023-04-15T23:19:35.421Z,60.30
2023-04-15T23:22:04.823Z,60.30
2023-04-15T23:24:33.809Z,60.20
2023-04-15T23:27:02.913Z,61.20
2023-04-15T23:29:32.209Z,61.20
2023-04-15T23:32:01.490Z,60.90
2023-04-15T23:34:30.906Z,60.30
2023-04-15T23:37:00.341Z,60.20
2023-04-15T23:39:29.720Z,59.70
2023-04-15T23:41:59.015Z,59.70
2023-04-15T23:44:28.198Z,59.60
2023-04-15T23:46:57.554Z,59.50
2023-04-15T23:49:27.020Z,59.10
2023-04-15T23:51:56.010Z,59.00
2023-04-15T23:54:25.219Z,59.60
2023-04-15T23:56:54.517Z,59.30
2023-04-15T23:59:23.720Z,59.70
